sensor_id;sensor_type;location;lat;lon;timestamp;pressure;altitude;pressure_sealevel;temperature;humidity
59240;BME280;45010;53.640;10.578;2024-02-04T00:01:49;100998.47;;;27.33;29.88
59240;BME280;45010;53.640;10.578;2024-02-04T00:04:49;101005.44;;;27.34;29.62
59240;BME280;45010;53.640;10.578;2024-02-04T00:07:49;100996.56;;;27.33;29.34
59240;BME280;45010;53.640;10.578;2024-02-04T00:10:49;100989.38;;;27.34;29.51
59240;BME280;45010;53.640;10.578;2024-02-04T00:13:50;100993.66;;;27.35;29.70
59240;BME280;45010;53.640;10.578;2024-02-04T00:16:50;100978.34;;;27.30;29.30
59240;BME280;45010;53.640;10.578;2024-02-04T00:19:50;100987.25;;;27.36;29.83
59240;BME280;45010;53.640;10.578;2024-02-04T00:22:51;100987.25;;;27.36;29.10
59240;BME280;45010;53.640;10.578;2024-02-04T00:25:51;100981.09;;;27.35;29.78
59240;BME280;45010;53.640;10.578;2024-02-04T00:28:51;100980.19;;;27.30;29.93
59240;BME280;45010;53.640;10.578;2024-02-04T00:31:52;100984.56;;;27.36;29.31
59240;BME280;45010;53.640;10.578;2024-02-04T00:34:53;101003.31;;;27.36;29.29
59240;BME280;45010;53.640;10.578;2024-02-04T00:37:53;101000.41;;;27.37;29.30
59240;BME280;45010;53.640;10.578;2024-02-04T00:40:53;100993.19;;;27.38;29.65
59240;BME280;45010;53.640;10.578;2024-02-04T00:43:54;100986.78;;;27.39;29.34
59240;BME280;45010;53.640;10.578;2024-02-04T00:46:54;100976.06;;;27.39;29.70
59240;BME280;45010;53.640;10.578;2024-02-04T00:49:55;100970.69;;;27.39;29.28
59240;BME280;45010;53.640;10.578;2024-02-04T00:52:55;100963.72;;;27.38;29.73
59240;BME280;45010;53.640;10.578;2024-02-04T00:55:55;100960.16;;;27.32;29.29
59240;BME280;45010;53.640;10.578;2024-02-04T00:58:56;100922.16;;;27.18;29.38
59240;BME280;45010;53.640;10.578;2024-02-04T01:01:56;100940.59;;;27.32;29.77
59240;BME280;45010;53.640;10.578;2024-02-04T01:04:57;100939.53;;;27.33;29.71
59240;BME280;45010;53.640;10.578;2024-02-04T01:07:58;100940.59;;;27.32;29.78
59240;BME280;45010;53.640;10.578;2024-02-04T01:10:58;100948.63;;;27.32;29.39
59240;BME280;45010;53.640;10.578;2024-02-04T01:13:59;100946.50;;;27.34;29.39
59240;BME280;45010;53.640;10.578;2024-02-04T01:16:59;100944.91;;;27.33;29.75
59240;BME280;45010;53.640;10.578;2024-02-04T01:19:59;100949.19;;;27.34;29.58
59240;BME280;45010;53.640;10.578;2024-02-04T01:23:00;100942.13;;;27.28;29.38
59240;BME280;45010;53.640;10.578;2024-02-04T01:26:00;100958.84;;;27.35;29.29
59240;BME280;45010;53.640;10.578;2024-02-04T01:29:00;100960.97;;;27.33;29.14
59240;BME280;45010;53.640;10.578;2024-02-04T01:32:01;100957.22;;;27.34;29.37
59240;BME280;45010;53.640;10.578;2024-02-04T01:35:02;100954.94;;;27.43;29.56
59240;BME280;45010;53.640;10.578;2024-02-04T01:38:03;100950.25;;;27.33;29.78
59240;BME280;45010;53.640;10.578;2024-02-04T01:41:03;100941.63;;;27.31;29.24
59240;BME280;45010;53.640;10.578;2024-02-04T01:44:04;100942.78;;;27.35;29.13
59240;BME280;45010;53.640;10.578;2024-02-04T01:47:04;100929.94;;;27.37;29.04
59240;BME280;45010;53.640;10.578;2024-02-04T01:50:05;100938.25;;;27.35;29.45
59240;BME280;45010;53.640;10.578;2024-02-04T01:53:06;100939.53;;;27.33;29.04
59240;BME280;45010;53.640;10.578;2024-02-04T01:56:06;100947.81;;;27.31;29.27
59240;BME280;45010;53.640;10.578;2024-02-04T01:59:07;100948.63;;;27.32;29.18
59240;BME280;45010;53.640;10.578;2024-02-04T02:02:07;100946.44;;;27.29;29.31
59240;BME280;45010;53.640;10.578;2024-02-04T02:05:08;100938.81;;;27.20;29.23
59240;BME280;45010;53.640;10.578;2024-02-04T02:08:09;100938.00;;;27.20;28.94
59240;BME280;45010;53.640;10.578;2024-02-04T02:11:24;100950.00;;;27.17;28.96
59240;BME280;45010;53.640;10.578;2024-02-04T02:14:30;100932.22;;;27.11;29.14
59240;BME280;45010;53.640;10.578;2024-02-04T02:17:45;100936.94;;;27.04;29.17
59240;BME280;45010;53.640;10.578;2024-02-04T02:24:35;100903.97;;;26.86;29.48
59240;BME280;45010;53.640;10.578;2024-02-04T02:27:50;100900.97;;;26.82;29.35
59240;BME280;45010;53.640;10.578;2024-02-04T02:30:51;100913.53;;;26.82;28.79
59240;BME280;45010;53.640;10.578;2024-02-04T02:33:51;100907.06;;;26.78;29.21
59240;BME280;45010;53.640;10.578;2024-02-04T02:37:29;100901.84;;;26.71;29.35
59240;BME280;45010;53.640;10.578;2024-02-04T02:40:45;100896.63;;;26.64;29.51
59240;BME280;45010;53.640;10.578;2024-02-04T02:43:46;100894.69;;;26.59;29.42
59240;BME280;45010;53.640;10.578;2024-02-04T02:46:47;100896.47;;;26.54;29.48
59240;BME280;45010;53.640;10.578;2024-02-04T02:49:48;100897.19;;;26.49;29.78
59240;BME280;45010;53.640;10.578;2024-02-04T02:52:50;100895.00;;;26.46;29.68
59240;BME280;45010;53.640;10.578;2024-02-04T02:55:50;100882.34;;;26.41;29.96
59240;BME280;45010;53.640;10.578;2024-02-04T02:58:51;100890.28;;;26.36;29.91
59240;BME280;45010;53.640;10.578;2024-02-04T03:01:51;100882.16;;;26.31;29.94
59240;BME280;45010;53.640;10.578;2024-02-04T03:04:51;100870.31;;;26.27;30.04
59240;BME280;45010;53.640;10.578;2024-02-04T03:07:52;100866.38;;;26.17;29.92
59240;BME280;45010;53.640;10.578;2024-02-04T03:10:52;100882.16;;;26.19;30.40
59240;BME280;45010;53.640;10.578;2024-02-04T03:13:52;100872.19;;;26.14;29.96
59240;BME280;45010;53.640;10.578;2024-02-04T03:16:53;100867.34;;;26.11;30.07
59240;BME280;45010;53.640;10.578;2024-02-04T03:19:53;100876.06;;;26.06;30.24
59240;BME280;45010;53.640;10.578;2024-02-04T03:22:57;100859.00;;;25.96;30.13
59240;BME280;45010;53.640;10.578;2024-02-04T03:25:57;100871.91;;;25.99;30.10
59240;BME280;45010;53.640;10.578;2024-02-04T03:28:57;100857.28;;;25.89;29.98
59240;BME280;45010;53.640;10.578;2024-02-04T03:31:58;100866.47;;;25.94;30.25
59240;BME280;45010;53.640;10.578;2024-02-04T03:35:02;100858.34;;;25.88;30.57
59240;BME280;45010;53.640;10.578;2024-02-04T03:38:03;100858.56;;;25.87;30.20
59240;BME280;45010;53.640;10.578;2024-02-04T03:41:03;100860.91;;;25.83;30.32
59240;BME280;45010;53.640;10.578;2024-02-04T03:44:03;100869.38;;;25.80;30.63
59240;BME280;45010;53.640;10.578;2024-02-04T03:47:04;100866.38;;;25.76;30.69
59240;BME280;45010;53.640;10.578;2024-02-04T03:50:05;100856.97;;;25.74;30.50
59240;BME280;45010;53.640;10.578;2024-02-04T03:53:05;100853.72;;;25.72;30.70
59240;BME280;45010;53.640;10.578;2024-02-04T03:56:05;100837.47;;;25.61;30.53
59240;BME280;45010;53.640;10.578;2024-02-04T03:59:08;100847.72;;;25.64;30.80
59240;BME280;45010;53.640;10.578;2024-02-04T04:02:08;100851.44;;;25.63;30.63
59240;BME280;45010;53.640;10.578;2024-02-04T04:05:11;100857.22;;;25.60;30.59
59240;BME280;45010;53.640;10.578;2024-02-04T04:08:14;100836.34;;;25.57;30.99
59240;BME280;45010;53.640;10.578;2024-02-04T04:11:15;100836.56;;;25.56;30.89
59240;BME280;45010;53.640;10.578;2024-02-04T04:14:15;100836.81;;;25.54;30.81
59240;BME280;45010;53.640;10.578;2024-02-04T04:17:15;100827.38;;;25.51;30.92
59240;BME280;45010;53.640;10.578;2024-02-04T04:20:16;100839.94;;;25.51;30.82
59240;BME280;45010;53.640;10.578;2024-02-04T04:23:16;100835.03;;;25.48;30.97
59240;BME280;45010;53.640;10.578;2024-02-04T04:26:16;100827.50;;;25.45;30.85
59240;BME280;45010;53.640;10.578;2024-02-04T04:29:17;100824.25;;;25.43;30.98
59240;BME280;45010;53.640;10.578;2024-02-04T04:32:17;100811.94;;;25.42;30.85
59240;BME280;45010;53.640;10.578;2024-02-04T04:35:17;100823.69;;;25.41;31.04
59240;BME280;45010;53.640;10.578;2024-02-04T04:38:18;100814.06;;;25.39;31.06
59240;BME280;45010;53.640;10.578;2024-02-04T04:41:18;100828.44;;;25.38;31.03
59240;BME280;45010;53.640;10.578;2024-02-04T04:44:19;100817.19;;;25.36;31.05
59240;BME280;45010;53.640;10.578;2024-02-04T04:47:19;100817.66;;;25.33;31.01
59240;BME280;45010;53.640;10.578;2024-02-04T04:50:19;100816.84;;;25.33;31.07
59240;BME280;45010;53.640;10.578;2024-02-04T04:53:20;100811.72;;;25.31;31.21
59240;BME280;45010;53.640;10.578;2024-02-04T04:56:20;100815.22;;;25.32;31.09
59240;BME280;45010;53.640;10.578;2024-02-04T04:59:20;100804.75;;;25.30;31.24
59240;BME280;45010;53.640;10.578;2024-02-04T05:02:21;100806.88;;;25.28;31.17
59240;BME280;45010;53.640;10.578;2024-02-04T05:05:21;100806.88;;;25.28;31.07
59240;BME280;45010;53.640;10.578;2024-02-04T05:08:21;100769.41;;;25.11;31.21
59240;BME280;45010;53.640;10.578;2024-02-04T05:11:22;100793.97;;;25.25;31.65
59240;BME280;45010;53.640;10.578;2024-02-04T05:14:22;100789.69;;;25.24;31.17
59240;BME280;45010;53.640;10.578;2024-02-04T05:17:23;100784.34;;;25.24;30.92
59240;BME280;45010;53.640;10.578;2024-02-04T05:20:23;100765.56;;;25.19;31.25
59240;BME280;45010;53.640;10.578;2024-02-04T05:23:23;100779.50;;;25.21;31.39
59240;BME280;45010;53.640;10.578;2024-02-04T05:26:24;100765.31;;;25.20;31.29
59240;BME280;45010;53.640;10.578;2024-02-04T05:29:24;100769.28;;;25.18;31.35
59240;BME280;45010;53.640;10.578;2024-02-04T05:32:24;100758.47;;;25.12;31.29
59240;BME280;45010;53.640;10.578;2024-02-04T05:35:24;100738.66;;;25.08;31.50
59240;BME280;45010;53.640;10.578;2024-02-04T05:38:25;100746.31;;;25.17;31.37
59240;BME280;45010;53.640;10.578;2024-02-04T05:41:25;100745.13;;;25.12;31.31
59240;BME280;45010;53.640;10.578;2024-02-04T05:44:25;100734.28;;;25.02;31.33
59240;BME280;45010;53.640;10.578;2024-02-04T05:47:26;100746.75;;;25.14;31.25
59240;BME280;45010;53.640;10.578;2024-02-04T05:50:26;100751.31;;;25.13;31.35
59240;BME280;45010;53.640;10.578;2024-02-04T05:53:26;100738.28;;;25.05;31.34
59240;BME280;45010;53.640;10.578;2024-02-04T05:56:27;100748.84;;;25.11;31.49
59240;BME280;45010;53.640;10.578;2024-02-04T05:59:27;100756.28;;;25.09;31.46
59240;BME280;45010;53.640;10.578;2024-02-04T06:02:27;100766.16;;;25.09;31.67
59240;BME280;45010;53.640;10.578;2024-02-04T06:05:28;100765.34;;;25.08;31.03
59240;BME280;45010;53.640;10.578;2024-02-04T06:08:28;100747.69;;;25.07;31.42
59240;BME280;45010;53.640;10.578;2024-02-04T06:11:28;100747.69;;;25.07;31.83
59240;BME280;45010;53.640;10.578;2024-02-04T06:14:28;100740.75;;;25.06;31.66
59240;BME280;45010;53.640;10.578;2024-02-04T06:17:29;100748.19;;;25.04;31.81
59240;BME280;45010;53.640;10.578;2024-02-04T06:20:29;100764.63;;;25.01;31.64
59240;BME280;45010;53.640;10.578;2024-02-04T06:23:29;100753.41;;;24.99;31.60
59240;BME280;45010;53.640;10.578;2024-02-04T06:26:30;100749.13;;;24.98;31.70
59240;BME280;45010;53.640;10.578;2024-02-04T06:29:30;100734.72;;;24.99;31.64
59240;BME280;45010;53.640;10.578;2024-02-04T06:32:30;100739.50;;;24.97;31.79
59240;BME280;45010;53.640;10.578;2024-02-04T06:35:32;100739.50;;;24.97;31.57
59240;BME280;45010;53.640;10.578;2024-02-04T06:38:32;100734.16;;;24.97;31.74
59240;BME280;45010;53.640;10.578;2024-02-04T06:41:32;100737.88;;;24.96;31.64
59240;BME280;45010;53.640;10.578;2024-02-04T06:44:34;100738.09;;;24.94;31.72
59240;BME280;45010;53.640;10.578;2024-02-04T06:47:35;100738.31;;;24.93;31.77
59240;BME280;45010;53.640;10.578;2024-02-04T06:50:35;100727.31;;;24.89;31.66
59240;BME280;45010;53.640;10.578;2024-02-04T06:53:37;100720.69;;;24.92;31.87
59240;BME280;45010;53.640;10.578;2024-02-04T06:56:37;100718.97;;;24.85;31.82
59240;BME280;45010;53.640;10.578;2024-02-04T06:59:37;100725.44;;;24.90;31.78
59240;BME280;45010;53.640;10.578;2024-02-04T07:02:38;100730.78;;;24.90;31.70
59240;BME280;45010;53.640;10.578;2024-02-04T07:05:38;100723.81;;;24.89;31.74
59240;BME280;45010;53.640;10.578;2024-02-04T07:08:38;100661.66;;;24.52;31.82
59240;BME280;45010;53.640;10.578;2024-02-04T07:11:39;100720.59;;;24.87;31.90
59240;BME280;45010;53.640;10.578;2024-02-04T07:14:39;100697.84;;;24.72;31.77
59240;BME280;45010;53.640;10.578;2024-02-04T07:17:39;100715.25;;;24.87;31.74
59240;BME280;45010;53.640;10.578;2024-02-04T07:20:40;100694.97;;;24.85;32.02
59240;BME280;45010;53.640;10.578;2024-02-04T07:23:40;100703.19;;;24.84;31.83
59240;BME280;45010;53.640;10.578;2024-02-04T07:26:40;100705.03;;;24.83;31.89
59240;BME280;45010;53.640;10.578;2024-02-04T07:29:41;100712.22;;;24.83;31.87
59240;BME280;45010;53.640;10.578;2024-02-04T07:32:41;100706.06;;;24.82;31.78
59240;BME280;45010;53.640;10.578;2024-02-04T07:35:41;100724.75;;;24.82;31.85
59240;BME280;45010;53.640;10.578;2024-02-04T07:38:41;100713.47;;;24.80;31.75
59240;BME280;45010;53.640;10.578;2024-02-04T07:41:42;100721.72;;;24.79;31.84
59240;BME280;45010;53.640;10.578;2024-02-04T07:44:42;100712.91;;;24.78;31.89
59240;BME280;45010;53.640;10.578;2024-02-04T07:47:42;100712.91;;;24.78;32.07
59240;BME280;45010;53.640;10.578;2024-02-04T07:50:43;100705.94;;;24.77;32.00
59240;BME280;45010;53.640;10.578;2024-02-04T07:53:43;100698.97;;;24.76;32.04
59240;BME280;45010;53.640;10.578;2024-02-04T07:56:44;100713.38;;;24.75;31.97
59240;BME280;45010;53.640;10.578;2024-02-04T07:59:44;100711.75;;;24.74;32.02
59240;BME280;45010;53.640;10.578;2024-02-04T08:02:44;100717.06;;;24.74;32.05
59240;BME280;45010;53.640;10.578;2024-02-04T08:05:45;100715.47;;;24.73;31.98
59240;BME280;45010;53.640;10.578;2024-02-04T08:08:45;100710.13;;;24.73;32.04
59240;BME280;45010;53.640;10.578;2024-02-04T08:11:47;100713.84;;;24.72;31.95
59240;BME280;45010;53.640;10.578;2024-02-04T08:14:48;100706.88;;;24.71;32.10
59240;BME280;45010;53.640;10.578;2024-02-04T08:17:48;100705.84;;;24.72;32.02
59240;BME280;45010;53.640;10.578;2024-02-04T08:20:48;100705.25;;;24.70;31.51
59240;BME280;45010;53.640;10.578;2024-02-04T08:23:49;100679.25;;;24.53;32.06
59240;BME280;45010;53.640;10.578;2024-02-04T08:26:49;100701.78;;;24.69;32.10
59240;BME280;45010;53.640;10.578;2024-02-04T08:29:49;100698.28;;;24.69;32.04
59240;BME280;45010;53.640;10.578;2024-02-04T08:32:50;100701.78;;;24.69;31.80
59240;BME280;45010;53.640;10.578;2024-02-04T08:35:50;100702.22;;;24.66;32.17
59240;BME280;45010;53.640;10.578;2024-02-04T08:38:50;100709.44;;;24.66;32.15
59240;BME280;45010;53.640;10.578;2024-02-04T08:41:51;100679.25;;;24.53;32.30
59240;BME280;45010;53.640;10.578;2024-02-04T08:44:51;100681.03;;;24.48;32.15
59240;BME280;45010;53.640;10.578;2024-02-04T08:47:52;100696.78;;;24.61;32.27
59240;BME280;45010;53.640;10.578;2024-02-04T08:50:52;100697.03;;;24.60;32.24
59240;BME280;45010;53.640;10.578;2024-02-04T08:53:54;100699.91;;;24.58;32.19
59240;BME280;45010;53.640;10.578;2024-02-04T08:56:55;100698.53;;;24.55;32.37
59240;BME280;45010;53.640;10.578;2024-02-04T08:59:55;100676.72;;;24.58;32.19
59240;BME280;45010;53.640;10.578;2024-02-04T09:02:55;100667.09;;;24.57;32.47
59240;BME280;45010;53.640;10.578;2024-02-04T09:05:56;100673.72;;;24.55;32.33
59240;BME280;45010;53.640;10.578;2024-02-04T09:08:56;100658.28;;;24.45;32.24
59240;BME280;45010;53.640;10.578;2024-02-04T09:11:56;100663.28;;;24.53;32.23
59240;BME280;45010;53.640;10.578;2024-02-04T09:14:57;100672.31;;;24.52;32.44
59240;BME280;45010;53.640;10.578;2024-02-04T09:17:57;100666.41;;;24.50;32.37
59240;BME280;45010;53.640;10.578;2024-02-04T09:20:57;100656.81;;;24.49;32.38
59240;BME280;45010;53.640;10.578;2024-02-04T09:23:58;100670.34;;;24.48;32.29
59240;BME280;45010;53.640;10.578;2024-02-04T09:26:58;100665.84;;;24.48;32.28
59240;BME280;45010;53.640;10.578;2024-02-04T09:29:58;100657.72;;;24.43;32.28
59240;BME280;45010;53.640;10.578;2024-02-04T09:32:59;100636.84;;;24.40;32.19
59240;BME280;45010;53.640;10.578;2024-02-04T09:35:59;100663.84;;;24.43;32.34
59240;BME280;45010;53.640;10.578;2024-02-04T09:38:59;100664.19;;;24.47;31.95
59240;BME280;45010;53.640;10.578;2024-02-04T09:42:01;100656.13;;;24.42;32.20
59240;BME280;45010;53.640;10.578;2024-02-04T09:45:01;100658.66;;;24.49;32.28
59240;BME280;45010;53.640;10.578;2024-02-04T09:48:02;100648.91;;;24.30;32.34
59240;BME280;45010;53.640;10.578;2024-02-04T09:51:03;100676.97;;;24.45;32.53
59240;BME280;45010;53.640;10.578;2024-02-04T09:54:05;100664.09;;;24.42;32.76
59240;BME280;45010;53.640;10.578;2024-02-04T09:57:08;100668.97;;;24.45;33.21
59240;BME280;45010;53.640;10.578;2024-02-04T10:00:10;100668.03;;;24.39;33.24
59240;BME280;45010;53.640;10.578;2024-02-04T10:03:10;100676.97;;;24.45;33.81
59240;BME280;45010;53.640;10.578;2024-02-04T10:06:11;100672.44;;;24.45;33.77
59240;BME280;45010;53.640;10.578;2024-02-04T10:09:11;100668.25;;;24.50;33.69
59240;BME280;45010;53.640;10.578;2024-02-04T10:12:12;100650.53;;;24.55;33.69
59240;BME280;45010;53.640;10.578;2024-02-04T10:15:12;100653.31;;;24.61;33.36
59240;BME280;45010;53.640;10.578;2024-02-04T10:18:13;100640.56;;;24.63;33.39
59240;BME280;45010;53.640;10.578;2024-02-04T10:21:15;100657.25;;;24.70;33.33
59240;BME280;45010;53.640;10.578;2024-02-04T10:24:16;100654.69;;;24.75;32.95
59240;BME280;45010;53.640;10.578;2024-02-04T10:27:16;100630.78;;;24.80;32.90
59240;BME280;45010;53.640;10.578;2024-02-04T10:30:19;100626.97;;;24.76;32.78
59240;BME280;45010;53.640;10.578;2024-02-04T10:33:20;100630.00;;;24.92;32.81
59240;BME280;45010;53.640;10.578;2024-02-04T10:36:21;100636.22;;;24.97;32.42
59240;BME280;45010;53.640;10.578;2024-02-04T10:39:21;100616.88;;;25.02;32.37
59240;BME280;45010;53.640;10.578;2024-02-04T10:42:24;100613.25;;;25.08;32.37
59240;BME280;45010;53.640;10.578;2024-02-04T10:45:28;100610.09;;;25.11;32.44
59240;BME280;45010;53.640;10.578;2024-02-04T10:48:34;100596.19;;;25.09;32.30
59240;BME280;45010;53.640;10.578;2024-02-04T10:51:42;100609.25;;;25.23;31.56
59240;BME280;45010;53.640;10.578;2024-02-04T10:54:44;100609.34;;;25.28;31.69
59240;BME280;45010;53.640;10.578;2024-02-04T10:57:44;100604.09;;;25.33;31.69
59240;BME280;45010;53.640;10.578;2024-02-04T11:00:45;100593.31;;;25.28;31.70
59240;BME280;45010;53.640;10.578;2024-02-04T11:03:46;100598.38;;;25.42;31.63
59240;BME280;45010;53.640;10.578;2024-02-04T11:06:47;100597.63;;;25.46;31.54
59240;BME280;45010;53.640;10.578;2024-02-04T11:09:49;100581.72;;;25.51;31.67
59240;BME280;45010;53.640;10.578;2024-02-04T11:12:50;100596.00;;;25.57;31.47
59240;BME280;45010;53.640;10.578;2024-02-04T11:15:53;100591.78;;;25.61;31.63
59240;BME280;45010;53.640;10.578;2024-02-04T11:22:22;100591.97;;;25.72;31.55
59240;BME280;45010;53.640;10.578;2024-02-04T11:25:39;100596.84;;;25.75;31.33
59240;BME280;45010;53.640;10.578;2024-02-04T11:28:43;100583.53;;;25.80;31.62
59240;BME280;45010;53.640;10.578;2024-02-04T11:31:43;100578.53;;;25.84;31.62
59240;BME280;45010;53.640;10.578;2024-02-04T11:34:45;100567.50;;;25.80;31.56
59240;BME280;45010;53.640;10.578;2024-02-04T11:37:45;100562.50;;;25.84;31.35
59240;BME280;45010;53.640;10.578;2024-02-04T11:40:46;100580.88;;;25.97;31.36
59240;BME280;45010;53.640;10.578;2024-02-04T11:43:46;100571.56;;;26.00;31.61
59240;BME280;45010;53.640;10.578;2024-02-04T11:46:47;100573.66;;;25.98;31.77
59240;BME280;45010;53.640;10.578;2024-02-04T11:49:54;100568.69;;;26.06;32.18
59240;BME280;45010;53.640;10.578;2024-02-04T11:53:02;100567.41;;;26.09;32.18
59240;BME280;45010;53.640;10.578;2024-02-04T11:56:03;100568.47;;;26.08;31.93
59240;BME280;45010;53.640;10.578;2024-02-04T11:59:05;100578.19;;;26.14;32.01
59240;BME280;45010;53.640;10.578;2024-02-04T12:02:06;100566.19;;;26.17;32.02
59240;BME280;45010;53.640;10.578;2024-02-04T12:05:07;100584.41;;;26.20;31.67
59240;BME280;45010;53.640;10.578;2024-02-04T12:08:08;100572.09;;;26.19;32.19
59240;BME280;45010;53.640;10.578;2024-02-04T12:11:08;100601.34;;;26.26;31.83
59240;BME280;45010;53.640;10.578;2024-02-04T12:14:10;100585.78;;;26.23;31.78
59240;BME280;45010;53.640;10.578;2024-02-04T12:17:10;100583.72;;;26.25;31.38
59240;BME280;45010;53.640;10.578;2024-02-04T12:20:11;100575.75;;;26.30;31.22
59240;BME280;45010;53.640;10.578;2024-02-04T12:23:12;100566.06;;;26.24;31.31
59240;BME280;45010;53.640;10.578;2024-02-04T12:26:13;100559.22;;;26.33;31.12
59240;BME280;45010;53.640;10.578;2024-02-04T12:29:14;100569.44;;;26.36;31.54
59240;BME280;45010;53.640;10.578;2024-02-04T12:32:14;100568.38;;;26.37;31.41
59240;BME280;45010;53.640;10.578;2024-02-04T12:35:15;100568.91;;;26.39;31.22
59240;BME280;45010;53.640;10.578;2024-02-04T12:38:16;100536.22;;;26.32;31.22
59240;BME280;45010;53.640;10.578;2024-02-04T12:41:17;100557.75;;;26.42;30.79
59240;BME280;45010;53.640;10.578;2024-02-04T12:44:18;100541.56;;;26.32;31.25
59240;BME280;45010;53.640;10.578;2024-02-04T12:47:19;100543.31;;;26.43;30.89
59240;BME280;45010;53.640;10.578;2024-02-04T12:50:20;100548.34;;;26.40;31.32
59240;BME280;45010;53.640;10.578;2024-02-04T12:53:21;100543.63;;;26.47;30.79
59240;BME280;45010;53.640;10.578;2024-02-04T12:56:21;100551.41;;;26.49;30.94
59240;BME280;45010;53.640;10.578;2024-02-04T12:59:32;100542.75;;;26.41;30.80
59240;BME280;45010;53.640;10.578;2024-02-04T13:02:34;100557.84;;;26.53;30.69
59240;BME280;45010;53.640;10.578;2024-02-04T13:05:36;100539.09;;;26.48;30.54
59240;BME280;45010;53.640;10.578;2024-02-04T13:08:37;100544.53;;;26.58;30.53
59240;BME280;45010;53.640;10.578;2024-02-04T13:11:37;100543.25;;;26.61;30.53
59240;BME280;45010;53.640;10.578;2024-02-04T13:14:38;100519.31;;;26.49;30.51
59240;BME280;45010;53.640;10.578;2024-02-04T13:17:38;100539.84;;;26.65;30.60
59240;BME280;45010;53.640;10.578;2024-02-04T13:20:39;100471.50;;;26.30;30.38
59240;BME280;45010;53.640;10.578;2024-02-04T13:23:40;100524.28;;;26.62;30.52
59240;BME280;45010;53.640;10.578;2024-02-04T13:26:41;100516.19;;;26.57;30.61
59240;BME280;45010;53.640;10.578;2024-02-04T13:29:41;100525.09;;;26.63;30.56
59240;BME280;45010;53.640;10.578;2024-02-04T13:32:42;100531.06;;;26.70;30.87
59240;BME280;45010;53.640;10.578;2024-02-04T13:35:43;100540.44;;;26.72;30.08
59240;BME280;45010;53.640;10.578;2024-02-04T13:38:43;100531.34;;;26.73;30.01
59240;BME280;45010;53.640;10.578;2024-02-04T13:41:44;100531.91;;;26.76;30.46
59240;BME280;45010;53.640;10.578;2024-02-04T13:44:45;100526.56;;;26.76;30.41
59240;BME280;45010;53.640;10.578;2024-02-04T13:47:45;100532.47;;;26.78;30.46
59240;BME280;45010;53.640;10.578;2024-02-04T13:50:45;100538.63;;;26.78;30.79
59240;BME280;45010;53.640;10.578;2024-02-04T13:53:46;100535.69;;;26.80;30.77
59240;BME280;45010;53.640;10.578;2024-02-04T13:56:46;100521.78;;;26.78;30.66
59240;BME280;45010;53.640;10.578;2024-02-04T13:59:46;100525.59;;;26.87;30.76
59240;BME280;45010;53.640;10.578;2024-02-04T14:02:47;100531.78;;;26.88;30.41
59240;BME280;45010;53.640;10.578;2024-02-04T14:05:48;100533.38;;;26.89;30.72
59240;BME280;45010;53.640;10.578;2024-02-04T14:08:49;100535.81;;;26.90;30.59
59240;BME280;45010;53.640;10.578;2024-02-04T14:11:51;100530.97;;;26.87;30.40
59240;BME280;45010;53.640;10.578;2024-02-04T14:14:51;100536.16;;;26.94;30.62
59240;BME280;45010;53.640;10.578;2024-02-04T14:17:51;100524.13;;;26.96;30.71
59240;BME280;45010;53.640;10.578;2024-02-04T14:20:52;100531.09;;;26.97;30.48
59240;BME280;45010;53.640;10.578;2024-02-04T14:23:52;100519.56;;;26.97;30.22
59240;BME280;45010;53.640;10.578;2024-02-04T14:26:57;100521.47;;;26.96;30.73
59240;BME280;45010;53.640;10.578;2024-02-04T14:29:57;100521.19;;;26.98;30.13
59240;BME280;45010;53.640;10.578;2024-02-04T14:32:58;100515.63;;;27.05;30.41
59240;BME280;45010;53.640;10.578;2024-02-04T14:35:58;100521.81;;;27.05;30.40
59240;BME280;45010;53.640;10.578;2024-02-04T14:39:00;100541.09;;;27.07;30.39
59240;BME280;45010;53.640;10.578;2024-02-04T14:42:01;100529.56;;;27.07;30.60
59240;BME280;45010;53.640;10.578;2024-02-04T14:45:02;100520.50;;;27.08;30.15
59240;BME280;45010;53.640;10.578;2024-02-04T14:48:02;100530.69;;;27.11;30.11
59240;BME280;45010;53.640;10.578;2024-02-04T14:51:03;100503.31;;;27.04;29.95
59240;BME280;45010;53.640;10.578;2024-02-04T14:54:03;100519.97;;;27.11;30.00
59240;BME280;45010;53.640;10.578;2024-02-04T14:57:05;100526.44;;;27.15;30.49
59240;BME280;45010;53.640;10.578;2024-02-04T15:00:06;100526.44;;;27.15;30.33
59240;BME280;45010;53.640;10.578;2024-02-04T15:03:06;100530.19;;;27.14;30.65
59240;BME280;45010;53.640;10.578;2024-02-04T15:06:07;100540.09;;;27.13;30.07
59240;BME280;45010;53.640;10.578;2024-02-04T15:09:07;100530.19;;;27.14;30.58
59240;BME280;45010;53.640;10.578;2024-02-04T15:12:08;100538.22;;;27.14;30.29
59240;BME280;45010;53.640;10.578;2024-02-04T15:15:10;100525.63;;;27.15;30.28
59240;BME280;45010;53.640;10.578;2024-02-04T15:18:11;100533.47;;;27.21;30.66
59240;BME280;45010;53.640;10.578;2024-02-04T15:21:11;100522.72;;;27.16;30.22
59240;BME280;45010;53.640;10.578;2024-02-04T15:24:12;100523.78;;;27.15;30.71
59240;BME280;45010;53.640;10.578;2024-02-04T15:27:14;100535.56;;;27.14;30.35
59240;BME280;45010;53.640;10.578;2024-02-04T15:30:15;100523.22;;;27.13;30.18
59240;BME280;45010;53.640;10.578;2024-02-04T15:33:16;100510.28;;;27.05;30.13
59240;BME280;45010;53.640;10.578;2024-02-04T15:36:17;100522.41;;;27.12;30.64
59240;BME280;45010;53.640;10.578;2024-02-04T15:39:18;100510.88;;;27.12;30.23
59240;BME280;45010;53.640;10.578;2024-02-04T15:42:20;100513.56;;;27.12;30.14